To NAV CANADA Home Page Login to a new session Search on AWWS site Feedback and Comments Disclaimer Vers la page française équivalente Tips FAQ What's new on the site To the Forecasts and Observations / NOTAM section To "File a Flight Plan" website Publications and other links Update of the User's profile FIC Telephone Numbers My Weather Data Folder Route Weather Data Regional Weather Data Local Weather Data To the Forecasts and Observations / NOTAM section
Request Generated 09/26/2017 at 05:37:22 UTC . Weather information available at that time is displayed.

METAR/TAF

MONTREAL/ST-HUBERT/QC    (show WxCam)

METAR CYHU 260500Z AUTO 18003KT 8SM CLR 21/19 A2997 RMK SLP150
DENSITY ALT 700FT=
SPECI CYHU 260404Z AUTO 22002KT 9SM CLR 22/19 A2998 RMK SLP152
DENSITY ALT 800FT=
METAR CYHU 260400Z AUTO 22002KT 5SM HZ CLR 22/19 A2998 RMK SLP152
DENSITY ALT 800FT=
SPECI CYHU 260354Z AUTO 23002KT 5SM HZ FEW240 22/19 A2998 RMK SLP152
DENSITY ALT 800FT=
METAR CYHU 260300Z AUTO 21006KT 9SM CLR 23/19 A2998 RMK SLP153
DENSITY ALT 900FT=

TAF CYHU 252338Z 2600/2624 23005KT P6SM SCT250
BECMG 2602/2604 VRB03KT
BECMG 2612/2614 21008KT
RMK FCST BASED ON AUTO OBS. NXT FCST BY 260600Z=
Your time UTC time
Weather data provided by Environment Canada and NAV CANADA